Time;durP1;ratioP1;P1;durP2;ratioP2;P2;SDS_P1;SDS_P2;PMS_P1;PMS_P2;Temp;Humidity;BMP_temperature;BMP_pressure;BME280_temperature;BME280_humidity;BME280_pressure;Samples;Min_cycle;Max_cycle;Signal;HPM_P1;HPM_P2
2023/04/03 00:02:05;;;;;;;7.68;1.70;;;;;;;1.63;62.96;103377.88;7392664;19;20482;-69
2023/04/03 00:04:30;;;;;;;7.57;1.95;;;;;;;1.65;63.13;103375.25;7391031;19;19995;-70
2023/04/03 00:06:56;;;;;;;6.85;1.92;;;;;;;1.61;63.36;103370.91;7390954;19;20012;-73
2023/04/03 00:09:21;;;;;;;6.78;2.10;;;;;;;1.47;63.57;103372.66;7392344;19;20087;-73
2023/04/03 00:11:47;;;;;;;6.57;1.95;;;;;;;1.20;64.73;103376.19;7391309;19;19998;-71
2023/04/03 00:14:12;;;;;;;6.38;2.00;;;;;;;1.29;64.88;103363.13;7390474;19;20018;-71
2023/04/03 00:16:38;;;;;;;6.82;1.67;;;;;;;1.28;64.76;103364.88;7389729;19;20013;-71
2023/04/03 00:19:03;;;;;;;7.95;2.00;;;;;;;1.27;64.70;103370.94;7391726;19;19994;-72
2023/04/03 00:21:29;;;;;;;5.10;1.75;;;;;;;1.39;64.37;103375.31;7390482;19;20025;-72
2023/04/03 00:23:55;;;;;;;5.30;1.80;;;;;;;1.51;63.76;103370.06;7390177;19;19995;-72
2023/04/03 00:26:20;;;;;;;6.57;2.00;;;;;;;1.51;63.72;103377.03;7390289;19;20058;-71
2023/04/03 00:28:46;;;;;;;10.40;1.92;;;;;;;1.57;63.61;103382.25;7391513;19;20040;-72
2023/04/03 00:31:14;;;;;;;7.43;2.22;;;;;;;1.52;63.81;103384.91;7392079;19;19998;-70
2023/04/03 00:33:40;;;;;;;7.40;2.55;;;;;;;1.22;64.72;103384.94;7388870;19;20014;-69
2023/04/03 00:36:07;;;;;;;9.77;2.10;;;;;;;1.33;64.46;103397.16;7390662;19;20006;-70
2023/04/03 00:38:33;;;;;;;8.70;2.13;;;;;;;1.33;64.78;103385.81;7392112;19;20006;-70
2023/04/03 00:40:58;;;;;;;9.18;1.77;;;;;;;1.29;64.65;103392.78;7391397;19;20010;-70
2023/04/03 00:43:26;;;;;;;7.00;2.35;;;;;;;1.30;64.53;103394.53;7389815;19;20341;-69
2023/04/03 00:45:54;;;;;;;9.15;2.28;;;;;;;1.32;64.63;103394.50;7391630;19;19994;-70
2023/04/03 00:48:41;;;;;;;7.35;2.35;;;;;;;1.27;64.68;103401.50;7391633;19;20006;-70
2023/04/03 00:51:11;;;;;;;7.25;2.22;;;;;;;1.20;64.92;103405.88;7390812;19;20027;-69
2023/04/03 00:53:50;;;;;;;10.40;2.33;;;;;;;1.21;64.93;103402.41;7388284;19;20005;-70
2023/04/03 00:56:19;;;;;;;6.85;2.13;;;;;;;0.98;65.67;103405.00;7390709;19;19998;-69
2023/04/03 00:58:57;;;;;;;10.10;2.50;;;;;;;0.83;66.38;103397.13;7391554;19;20003;-70
2023/04/03 01:01:26;;;;;;;7.95;2.60;;;;;;;0.92;65.99;103389.28;7391779;19;20017;-70
2023/04/03 01:03:51;;;;;;;8.80;2.28;;;;;;;1.12;65.11;103397.13;7389257;19;20013;-70
2023/04/03 01:06:21;;;;;;;7.75;2.42;;;;;;;1.09;65.27;103398.03;7390596;19;20478;-70
2023/04/03 01:08:50;;;;;;;7.03;2.17;;;;;;;0.93;65.84;103391.88;7391011;19;20002;-70
2023/04/03 01:11:15;;;;;;;7.85;2.53;;;;;;;1.07;65.45;103401.50;7390742;19;20006;-71
2023/04/03 01:13:41;;;;;;;10.27;2.65;;;;;;;1.05;65.52;103398.00;7388877;19;20018;-72
2023/04/03 01:16:07;;;;;;;7.70;1.90;;;;;;;0.82;66.03;103398.84;7389630;19;20006;-71
2023/04/03 01:18:34;;;;;;;9.18;2.30;;;;;;;0.87;66.12;103404.13;7388946;19;20010;-71
2023/04/03 01:21:08;;;;;;;8.10;2.30;;;;;;;0.96;65.74;103404.13;7398060;19;19995;-71
2023/04/03 01:23:39;;;;;;;7.50;1.95;;;;;;;0.86;66.02;103408.50;7395983;19;20003;-69
2023/04/03 01:26:05;;;;;;;6.80;1.90;;;;;;;0.83;66.07;103418.94;7397320;19;20055;-72
2023/04/03 01:28:34;;;;;;;7.13;2.03;;;;;;;0.90;65.98;103420.69;7398426;19;20002;-71
2023/04/03 01:31:08;;;;;;;6.45;2.20;;;;;;;0.77;66.38;103420.66;7398327;19;20330;-71
2023/04/03 01:33:35;;;;;;;8.00;2.08;;;;;;;0.89;65.88;103418.06;7396195;19;19999;-71
2023/04/03 01:36:01;;;;;;;5.95;1.98;;;;;;;0.87;65.97;103422.44;7397110;19;20003;-72
2023/04/03 01:38:27;;;;;;;5.53;1.80;;;;;;;0.89;65.73;103425.91;7397739;19;20066;-72
2023/04/03 01:40:52;;;;;;;7.32;2.25;;;;;;;0.80;66.32;103424.16;7398563;19;19998;-71
2023/04/03 01:43:18;;;;;;;8.82;2.05;;;;;;;0.62;66.72;103426.72;7404565;19;20022;-72
2023/04/03 01:45:44;;;;;;;7.97;2.15;;;;;;;0.62;66.76;103427.59;7397741;19;20037;-69
2023/04/03 01:48:09;;;;;;;9.18;2.20;;;;;;;0.68;66.90;103421.53;7397799;19;19998;-70
2023/04/03 01:50:35;;;;;;;7.85;2.08;;;;;;;0.76;66.28;103430.25;7398527;19;19999;-71
2023/04/03 01:53:00;;;;;;;8.40;2.17;;;;;;;0.74;66.47;103431.13;7397140;19;20002;-71
2023/04/03 01:55:29;;;;;;;8.93;2.58;;;;;;;0.80;66.21;103428.53;7396931;19;19994;-70
2023/04/03 01:57:54;;;;;;;7.78;2.13;;;;;;;0.79;66.31;103425.03;7401863;19;20031;-68
2023/04/03 02:06:41;;;;;;;7.30;2.22;;;;;;;0.52;67.15;103436.31;7394020;19;20465;-70
2023/04/03 02:09:29;;;;;;;7.90;2.50;;;;;;;0.58;67.07;103428.47;7396790;19;20010;-69
2023/04/03 02:12:22;;;;;;;5.55;2.30;;;;;;;0.66;66.44;103429.34;7393553;19;19998;-69
2023/04/03 02:15:40;;;;;;;8.55;2.50;;;;;;;0.59;67.17;103438.06;7389552;19;20111;-70
2023/04/03 02:18:41;;;;;;;;;;;;;;;0.49;67.63;103433.69;7396938;19;20014;-70
2023/04/03 02:21:49;;;;;;;7.47;2.35;;;;;;;0.50;67.58;103431.94;7396516;19;19942;-70
2023/04/03 02:24:41;;;;;;;8.15;2.70;;;;;;;0.36;67.64;103434.47;7395116;19;20006;-70
2023/04/03 02:27:47;;;;;;;9.20;2.33;;;;;;;0.40;67.50;103433.63;7396818;19;19999;-70
2023/04/03 02:30:19;;;;;;;6.38;2.33;;;;;;;0.20;68.09;103433.56;7394099;19;19999;-70
2023/04/03 02:33:07;;;;;;;11.23;2.50;;;;;;;0.25;68.47;103436.19;7393044;19;19995;-71
2023/04/03 02:36:12;;;;;;;7.93;2.63;;;;;;;0.40;67.81;103434.53;7393424;19;20125;-71
2023/04/03 02:38:46;;;;;;;10.75;2.72;;;;;;;0.29;67.95;103441.47;7394452;19;19999;-70
2023/04/03 02:41:40;;;;;;;10.75;2.40;;;;;;;-0.01;69.08;103439.56;7394953;19;20056;-71
2023/04/03 02:47:17;;;;;;;7.85;2.50;;;;;;;0.04;69.01;103450.03;7393507;19;20001;-69
2023/04/03 02:49:45;;;;;;;6.85;2.55;;;;;;;0.17;68.87;103439.63;7393791;19;20398;-70
2023/04/03 02:52:44;;;;;;;10.45;3.05;;;;;;;0.15;68.73;103443.13;7392717;19;20030;-70
2023/04/03 02:55:29;;;;;;;7.90;2.83;;;;;;;0.10;69.08;103442.22;7391734;19;20447;-70
2023/04/03 02:57:55;;;;;;;7.75;2.60;;;;;;;0.30;68.49;103448.41;7393777;19;20002;-70
2023/04/03 03:00:20;;;;;;;9.95;2.67;;;;;;;0.38;68.03;103445.84;7394922;19;20002;-69
2023/04/03 03:02:46;;;;;;;9.82;2.45;;;;;;;0.40;67.78;103444.09;7393418;19;19995;-69
2023/04/03 03:05:11;;;;;;;9.30;2.70;;;;;;;0.50;67.55;103448.50;7392984;19;19995;-68
2023/04/03 03:07:37;;;;;;;7.82;2.60;;;;;;;0.44;67.68;103443.22;7394624;19;20002;-67
2023/04/03 03:10:02;;;;;;;7.07;2.28;;;;;;;0.35;67.94;103443.22;7394241;19;19998;-68
2023/04/03 03:12:28;;;;;;;9.27;2.85;;;;;;;0.26;68.32;103437.94;7393969;19;19995;-68
2023/04/03 03:14:53;;;;;;;7.75;2.75;;;;;;;0.24;68.39;103444.91;7390789;19;20014;-69
2023/04/03 03:17:19;;;;;;;7.22;2.50;;;;;;;0.36;68.12;103448.44;7393505;19;19991;-69
2023/04/03 03:19:45;;;;;;;9.50;2.90;;;;;;;0.23;68.30;103441.41;7394220;19;20006;-69
2023/04/03 03:22:11;;;;;;;9.60;3.10;;;;;;;0.30;68.35;103445.81;7393137;19;20011;-69
2023/04/03 03:24:37;;;;;;;10.68;2.78;;;;;;;0.26;68.36;103446.66;7391650;19;20002;-70
2023/04/03 03:27:02;;;;;;;9.30;2.95;;;;;;;0.33;68.16;103452.81;7393962;19;20098;-70
2023/04/03 03:29:28;;;;;;;7.47;2.88;;;;;;;0.19;68.20;103448.38;7392752;19;20382;-69
2023/04/03 03:31:53;;;;;;;10.18;3.03;;;;;;;0.16;68.79;103448.34;7390846;19;20370;-68
2023/04/03 03:34:19;;;;;;;7.80;2.92;;;;;;;0.29;68.19;103451.91;7388853;19;20521;-70
2023/04/03 03:36:45;;;;;;;9.70;3.00;;;;;;;0.29;68.10;103449.31;7389456;19;20018;-70
2023/04/03 03:39:10;;;;;;;9.38;3.10;;;;;;;0.31;68.34;103451.91;7389786;19;20481;-69
2023/04/03 03:41:36;;;;;;;9.35;3.30;;;;;;;0.26;68.40;103443.19;7388461;19;20086;-69
2023/04/03 03:44:01;;;;;;;9.75;3.20;;;;;;;0.26;68.18;103441.44;7390883;19;20006;-71
2023/04/03 03:46:27;;;;;;;9.52;3.42;;;;;;;0.25;68.27;103446.63;7392636;19;20016;-71
2023/04/03 03:48:52;;;;;;;10.35;2.88;;;;;;;0.17;68.45;103444.00;7393153;19;20476;-71
2023/04/03 03:51:18;;;;;;;10.25;3.03;;;;;;;-0.09;69.02;103443.88;7392808;19;20453;-72
2023/04/03 03:53:43;;;;;;;8.50;3.20;;;;;;;-0.18;69.97;103444.66;7391492;19;20014;-71
2023/04/03 03:56:09;;;;;;;11.40;3.00;;;;;;;0.05;69.27;103447.41;7391676;19;19998;-73
2023/04/03 03:58:35;;;;;;;7.53;3.03;;;;;;;0.04;68.80;103450.91;7393098;19;20070;-71
2023/04/03 04:01:05;;;;;;;11.60;3.88;;;;;;;-0.32;70.10;103448.94;7392851;19;20006;-71
2023/04/03 04:03:31;;;;;;;11.48;3.30;;;;;;;-0.72;71.72;103455.59;7391431;19;19999;-72
2023/04/03 04:05:56;;;;;;;10.55;2.88;;;;;;;-0.58;71.64;103457.47;7392642;19;20002;-73
2023/04/03 04:08:22;;;;;;;10.25;3.53;;;;;;;-0.68;71.86;103458.22;7392180;19;20530;-71
2023/04/03 04:10:48;;;;;;;8.05;2.85;;;;;;;-0.84;72.39;103458.97;7392466;19;19999;-72
2023/04/03 04:13:13;;;;;;;11.15;3.50;;;;;;;-0.86;72.46;103458.94;7389768;19;20449;-72
2023/04/03 04:15:39;;;;;;;13.10;3.20;;;;;;;-0.84;72.39;103461.56;7390225;19;20014;-71
2023/04/03 04:18:04;;;;;;;10.40;3.20;;;;;;;-0.74;72.57;103465.13;7389485;19;19994;-71
2023/04/03 04:20:30;;;;;;;9.23;3.20;;;;;;;-0.69;72.31;103468.66;7392052;19;20081;-71
2023/04/03 04:22:55;;;;;;;9.43;3.13;;;;;;;-0.45;71.19;103471.47;7391430;19;20331;-71
2023/04/03 04:25:21;;;;;;;11.18;3.38;;;;;;;-0.61;71.76;103475.69;7389817;19;20003;-71
2023/04/03 04:27:47;;;;;;;9.88;3.20;;;;;;;-0.31;70.86;103474.19;7392530;19;20430;-70
2023/04/03 04:30:13;;;;;;;10.60;3.72;;;;;;;-0.27;70.31;103469.88;7391849;19;20386;-70
2023/04/03 04:32:38;;;;;;;10.85;3.70;;;;;;;-0.43;70.78;103479.34;7391159;19;19998;-70
2023/04/03 04:35:05;;;;;;;15.82;3.90;;;;;;;-0.48;71.10;103478.41;7390987;19;20465;-70
2023/04/03 04:37:31;;;;;;;6.78;3.00;;;;;;;-0.38;70.67;103486.31;7391141;19;20007;-70
2023/04/03 04:39:56;;;;;;;10.40;3.45;;;;;;;-0.34;70.50;103490.72;7391234;19;20459;-71
2023/04/03 04:42:22;;;;;;;7.47;2.92;;;;;;;-0.39;70.76;103489.81;7391383;19;20006;-71
2023/04/03 04:44:47;;;;;;;11.48;3.45;;;;;;;-0.35;70.56;103498.56;7389969;19;20017;-71
2023/04/03 04:47:13;;;;;;;11.18;3.20;;;;;;;-0.44;71.10;103493.22;7390687;19;20430;-72
2023/04/03 04:49:38;;;;;;;11.45;3.63;;;;;;;-0.47;71.01;103494.09;7390936;19;19995;-71
2023/04/03 04:52:04;;;;;;;9.45;3.35;;;;;;;-0.42;71.21;103500.22;7390450;19;20003;-71
2023/04/03 04:54:30;;;;;;;10.73;3.45;;;;;;;-0.49;71.08;103498.44;7389012;19;20031;-71
2023/04/03 04:56:56;;;;;;;8.65;3.35;;;;;;;-0.50;71.54;103494.06;7389917;19;19995;-71
2023/04/03 04:59:21;;;;;;;10.43;3.20;;;;;;;-0.29;70.81;103503.81;7391848;19;20103;-70
2023/04/03 05:01:47;;;;;;;10.85;4.07;;;;;;;-0.24;70.54;103509.97;7390249;19;19994;-70
2023/04/03 05:04:13;;;;;;;9.30;3.60;;;;;;;-0.28;70.62;103497.75;7390031;19;19998;-69
2023/04/03 05:06:39;;;;;;;9.73;3.28;;;;;;;-0.35;70.94;103502.03;7387881;19;20467;-70
2023/04/03 05:09:05;;;;;;;9.38;3.55;;;;;;;-0.20;70.46;103503.03;7386711;19;20127;-71
2023/04/03 05:11:30;;;;;;;10.88;3.72;;;;;;;-0.23;70.30;103510.81;7391232;19;20541;-71
2023/04/03 05:13:56;;;;;;;9.40;3.95;;;;;;;-0.32;70.62;103515.13;7388768;19;19998;-71
2023/04/03 05:16:21;;;;;;;10.23;4.10;;;;;;;-0.25;70.54;103512.53;7386930;19;19991;-71
2023/04/03 05:18:47;;;;;;;11.88;3.92;;;;;;;-0.18;70.30;103511.72;7388481;19;20041;-71
2023/04/03 05:21:13;;;;;;;11.57;3.78;;;;;;;-0.15;70.19;103511.75;7391580;19;20094;-71
2023/04/03 05:23:38;;;;;;;9.88;3.60;;;;;;;-0.21;70.55;103509.09;7392057;19;20315;-71
2023/04/03 05:26:04;;;;;;;11.00;3.88;;;;;;;-0.26;70.44;103505.56;7392951;19;20030;-73
2023/04/03 05:28:30;;;;;;;10.70;3.95;;;;;;;-0.41;71.25;103515.03;7391398;19;20005;-70
2023/04/03 05:30:57;;;;;;;10.93;4.07;;;;;;;-0.14;70.39;103508.28;7391364;19;19991;-71
2023/04/03 05:33:23;;;;;;;12.15;4.30;;;;;;;-0.10;70.10;103516.13;7389785;19;20114;-71
2023/04/03 05:35:49;;;;;;;10.50;4.15;;;;;;;-0.16;70.59;103515.25;7391435;19;19995;-71
2023/04/03 05:38:15;;;;;;;10.35;4.40;;;;;;;0.00;69.91;103514.47;7387999;19;20469;-70
2023/04/03 05:40:40;;;;;;;8.93;4.05;;;;;;;-0.15;70.27;103514.38;7389818;19;20058;-70
2023/04/03 05:43:06;;;;;;;9.85;4.10;;;;;;;-0.01;70.08;103512.72;7388682;19;20475;-70
2023/04/03 05:45:31;;;;;;;11.60;4.18;;;;;;;0.09;69.42;103522.34;7389252;19;20562;-71
2023/04/03 05:47:57;;;;;;;11.15;4.03;;;;;;;0.09;69.72;103526.72;7389791;19;20327;-71
2023/04/03 05:50:23;;;;;;;10.60;4.03;;;;;;;0.18;69.17;103522.44;7389712;19;20398;-70
2023/04/03 05:52:50;;;;;;;11.10;4.32;;;;;;;0.24;69.33;103528.56;7386017;19;20504;-70
2023/04/03 05:55:16;;;;;;;10.75;3.83;;;;;;;0.25;69.33;103531.19;7389025;19;20097;-70
2023/04/03 05:57:41;;;;;;;9.02;3.85;;;;;;;0.17;69.21;103536.34;7386937;19;20409;-71
2023/04/03 06:00:12;;;;;;;12.00;4.00;;;;;;;0.07;69.79;103541.53;7390080;19;20070;-70
2023/04/03 06:02:38;;;;;;;8.50;3.70;;;;;;;0.26;69.48;103530.31;7388576;19;20006;-71
2023/04/03 06:05:04;;;;;;;10.48;3.72;;;;;;;0.35;68.78;103535.59;7388608;19;20006;-71
2023/04/03 06:07:29;;;;;;;12.25;3.95;;;;;;;0.38;69.03;103535.63;7396972;19;19998;-71
2023/04/03 06:09:56;;;;;;;12.02;3.97;;;;;;;0.36;68.64;103542.56;7396895;19;20007;-70
2023/04/03 06:12:22;;;;;;;10.90;3.53;;;;;;;0.35;69.29;103545.19;7395389;19;20108;-70
2023/04/03 06:14:48;;;;;;;14.00;3.83;;;;;;;0.45;68.84;103549.59;7392502;19;20014;-70
2023/04/03 06:17:15;;;;;;;11.13;4.15;;;;;;;0.60;68.40;103554.03;7394879;19;20495;-70
2023/04/03 06:19:41;;;;;;;11.18;4.13;;;;;;;0.60;68.64;103552.28;7396088;19;20002;-71
2023/04/03 06:22:07;;;;;;;11.88;4.20;;;;;;;0.61;68.31;103550.56;7395457;19;20007;-71
2023/04/03 06:24:33;;;;;;;10.50;3.95;;;;;;;0.67;68.37;103554.06;7392778;19;20070;-70
2023/04/03 06:26:59;;;;;;;8.52;3.72;;;;;;;0.68;68.24;103553.19;7396113;19;20010;-69
2023/04/03 06:29:25;;;;;;;10.90;4.22;;;;;;;0.78;68.15;103548.00;7395295;19;20007;-70
2023/04/03 06:31:51;;;;;;;8.48;3.63;;;;;;;0.73;68.15;103553.22;7392990;19;20097;-70
2023/04/03 06:34:17;;;;;;;9.52;4.03;;;;;;;0.83;68.12;103554.13;7391666;19;20006;-70
2023/04/03 06:36:44;;;;;;;10.05;4.55;;;;;;;0.92;67.91;103554.16;7394919;19;20002;-70
2023/04/03 06:39:16;;;;;;;11.20;4.20;;;;;;;0.98;67.82;103556.81;7395216;19;20324;-71
2023/04/03 06:41:42;;;;;;;12.95;3.80;;;;;;;0.84;68.16;103553.25;7394753;19;20395;-70
2023/04/03 06:44:10;;;;;;;12.18;4.15;;;;;;;0.99;67.82;103555.06;7393514;19;19994;-72
2023/04/03 06:46:37;;;;;;;10.23;4.00;;;;;;;1.04;67.23;103558.56;7394561;19;20021;-70
2023/04/03 06:49:03;;;;;;;11.48;4.40;;;;;;;1.02;67.47;103565.56;7394354;19;20026;-71
2023/04/03 06:51:30;;;;;;;15.63;4.40;;;;;;;1.01;67.38;103572.50;7395899;19;20099;-72
2023/04/03 06:53:58;;;;;;;12.55;4.00;;;;;;;1.09;67.18;103576.03;7393076;19;20035;-71
2023/04/03 06:56:26;;;;;;;8.77;4.32;;;;;;;1.15;67.62;103577.78;7393509;19;20006;-70
2023/04/03 06:58:54;;;;;;;11.75;4.40;;;;;;;1.20;67.55;103581.28;7394836;19;20127;-70
2023/04/03 07:01:20;;;;;;;10.63;4.00;;;;;;;1.22;67.08;103587.41;7394953;19;20344;-71
2023/04/03 07:03:47;;;;;;;10.07;4.22;;;;;;;1.30;67.28;103590.06;7392464;19;20026;-71
2023/04/03 07:06:15;;;;;;;13.55;4.20;;;;;;;1.33;66.94;103590.06;7391846;19;20104;-71
2023/04/03 07:08:42;;;;;;;9.55;4.05;;;;;;;1.37;67.23;103589.19;7394965;19;19995;-71
2023/04/03 07:11:08;;;;;;;10.15;3.63;;;;;;;1.51;67.05;103595.34;7392099;19;20003;-71
2023/04/03 07:13:43;;;;;;;12.10;4.05;;;;;;;1.67;66.94;103591.88;7391149;19;20031;-70
2023/04/03 07:16:15;;;;;;;11.57;4.13;;;;;;;1.77;66.36;103597.97;7390526;19;20319;-71
2023/04/03 07:18:41;;;;;;;10.07;3.90;;;;;;;1.78;66.38;103597.13;7393244;19;20034;-72
2023/04/03 07:21:07;;;;;;;8.60;3.42;;;;;;;1.90;66.20;103601.50;7394396;19;20002;-71
2023/04/03 07:23:33;;;;;;;9.07;3.80;;;;;;;2.01;65.25;103604.13;7392702;19;20069;-70
2023/04/03 07:25:59;;;;;;;13.18;4.68;;;;;;;2.04;65.59;103607.59;7392914;19;19998;-70
2023/04/03 07:28:25;;;;;;;11.32;4.35;;;;;;;2.05;65.36;103609.34;7394910;19;20009;-70
2023/04/03 07:31:03;;;;;;;12.45;3.78;;;;;;;2.06;65.98;103607.59;7393546;19;20029;-70
2023/04/03 07:33:29;;;;;;;9.30;3.08;;;;;;;2.15;65.53;103608.47;7392186;19;20002;-71
2023/04/03 07:35:55;;;;;;;11.77;3.67;;;;;;;2.23;65.33;103610.22;7392815;19;20006;-70
2023/04/03 07:38:20;;;;;;;10.50;3.80;;;;;;;2.30;65.15;103606.69;7391012;19;20019;-70
2023/04/03 07:40:47;;;;;;;8.45;3.17;;;;;;;2.41;64.42;103607.56;7394309;19;20441;-70
2023/04/03 07:43:14;;;;;;;11.30;3.13;;;;;;;2.50;64.55;103604.94;7391833;19;20073;-69
2023/04/03 07:45:40;;;;;;;9.63;2.85;;;;;;;2.62;63.85;103610.16;7392915;19;20035;-70
2023/04/03 07:48:06;;;;;;;7.93;3.08;;;;;;;2.69;63.91;103605.72;7393470;19;20470;-70
2023/04/03 07:50:32;;;;;;;9.82;3.50;;;;;;;2.76;63.30;103603.97;7393033;19;20002;-71
2023/04/03 07:52:58;;;;;;;6.82;2.20;;;;;;;2.93;62.36;103601.31;7391660;19;20002;-71
2023/04/03 07:55:24;;;;;;;7.70;2.13;;;;;;;2.94;60.81;103595.16;7392328;19;20011;-69
2023/04/03 07:57:50;;;;;;;8.30;2.30;;;;;;;2.87;60.81;103597.81;7389704;19;20086;-70
2023/04/03 08:00:22;;;;;;;9.18;2.55;;;;;;;2.91;61.18;103605.66;7386437;19;19995;-60
2023/04/03 08:02:50;;;;;;;7.72;1.98;;;;;;;2.95;59.46;103605.66;7393139;19;20078;-60
2023/04/03 08:05:17;;;;;;;5.88;1.42;;;;;;;3.04;58.92;103600.38;7393755;19;20014;-60
2023/04/03 08:07:43;;;;;;;6.95;1.67;;;;;;;3.13;58.26;103600.31;7387639;19;20010;-60
2023/04/03 08:10:09;;;;;;;8.55;2.00;;;;;;;3.20;57.99;103597.66;7389712;19;20069;-60
2023/04/03 08:12:34;;;;;;;7.50;1.77;;;;;;;3.32;57.72;103594.97;7392035;19;20002;-60
2023/04/03 08:15:01;;;;;;;7.93;1.88;;;;;;;3.47;57.23;103599.25;7387088;19;20475;-59
2023/04/03 08:17:26;;;;;;;4.75;1.20;;;;;;;3.53;56.33;103594.84;7389840;19;20006;-59
2023/04/03 08:19:52;;;;;;;4.35;1.30;;;;;;;3.58;55.26;103600.06;7392197;19;19999;-60
2023/04/03 08:22:17;;;;;;;5.13;1.40;;;;;;;3.55;54.13;103595.69;7387831;19;20470;-59
2023/04/03 08:24:43;;;;;;;6.35;1.40;;;;;;;3.52;54.50;103597.47;7391445;19;20025;-58
2023/04/03 08:27:08;;;;;;;7.30;1.70;;;;;;;3.64;53.84;103592.13;7391960;19;20002;-58
2023/04/03 08:29:34;;;;;;;3.90;1.10;;;;;;;3.68;53.48;103590.34;7391047;19;20005;-59
2023/04/03 08:32:00;;;;;;;6.68;1.17;;;;;;;3.69;52.24;103587.72;7387791;19;19998;-59
2023/04/03 08:34:25;;;;;;;4.72;1.48;;;;;;;3.71;51.87;103585.06;7391301;19;20007;-59
2023/04/03 08:36:51;;;;;;;2.67;0.95;;;;;;;3.72;49.79;103589.44;7390535;19;20006;-60
2023/04/03 08:39:16;;;;;;;4.28;0.98;;;;;;;3.69;49.89;103590.34;7385171;19;20011;-60
2023/04/03 08:41:46;;;;;;;4.22;1.25;;;;;;;3.75;50.42;103594.66;7389376;19;20005;-60
2023/04/03 08:44:38;;;;;;;2.95;1.10;;;;;;;3.86;48.74;103596.34;7391484;19;19998;-59
2023/04/03 08:47:42;;;;;;;5.32;1.08;;;;;;;3.88;48.25;103585.81;7389524;19;20027;-59
2023/04/03 08:50:16;;;;;;;6.30;1.70;;;;;;;3.99;49.15;103581.38;7389841;19;20009;-59
2023/04/03 08:52:52;;;;;;;4.65;1.00;;;;;;;3.99;48.62;103583.09;7389813;19;20325;-60
2023/04/03 08:55:31;;;;;;;4.82;1.10;;;;;;;4.05;48.18;103585.69;7389976;19;20019;-59
2023/04/03 08:58:29;;;;;;;4.65;1.10;;;;;;;4.13;48.75;103578.59;7390008;19;20022;-60
2023/04/03 09:01:04;;;;;;;3.88;1.02;;;;;;;4.14;47.86;103575.06;7388471;19;20014;-60
2023/04/03 09:03:32;;;;;;;4.07;1.05;;;;;;;4.18;47.68;103583.81;7390150;19;20349;-59
2023/04/03 09:06:15;;;;;;;6.75;1.20;;;;;;;4.22;46.15;103577.63;7389747;19;20027;-59
2023/04/03 09:09:02;;;;;;;6.15;1.77;;;;;;;4.23;45.71;103569.75;7390846;19;20019;-59
2023/04/03 09:11:42;;;;;;;6.78;1.23;;;;;;;4.26;47.29;103571.47;7386782;19;20499;-59
2023/04/03 09:14:25;;;;;;;3.53;0.88;;;;;;;4.25;43.83;103573.22;7391040;19;19999;-59
2023/04/03 09:16:59;;;;;;;4.80;1.50;;;;;;;4.30;45.44;103574.06;7389897;19;19998;-59
2023/04/03 09:19:30;;;;;;;4.28;1.10;;;;;;;4.37;45.96;103572.22;7390201;19;20002;-59
2023/04/03 09:22:23;;;;;;;4.03;1.17;;;;;;;4.44;44.31;103568.63;7388357;19;20229;-61
2023/04/03 09:24:57;;;;;;;4.05;1.00;;;;;;;4.48;45.07;103565.06;7388107;19;20325;-60
2023/04/03 09:27:22;;;;;;;4.88;1.00;;;;;;;4.57;44.41;103575.50;7389824;19;19995;-59
2023/04/03 09:29:53;;;;;;;3.20;0.90;;;;;;;4.58;44.13;103563.22;7393197;19;20015;-60
2023/04/03 09:32:28;;;;;;;5.00;1.10;;;;;;;4.59;43.81;103573.72;7387894;19;20001;-60
2023/04/03 09:34:59;;;;;;;11.65;4.10;;;;;;;4.61;43.53;103564.94;7387945;19;19994;-60
2023/04/03 09:37:37;;;;;;;8.85;3.40;;;;;;;4.64;41.11;103564.88;7391692;19;20015;-60
2023/04/03 09:40:04;;;;;;;20.58;7.65;;;;;;;4.66;42.87;103563.13;7390773;19;19998;-59
2023/04/03 09:42:31;;;;;;;23.88;9.90;;;;;;;4.76;43.20;103562.13;7396946;19;20034;-60
2023/04/03 09:45:03;;;;;;;4.72;1.45;;;;;;;4.79;43.08;103559.44;7397541;19;19990;-59
2023/04/03 09:47:33;;;;;;;8.32;2.70;;;;;;;4.81;43.41;103553.28;7395764;19;20054;-60
2023/04/03 09:50:13;;;;;;;7.03;1.70;;;;;;;4.85;41.16;103548.84;7397649;19;19994;-59
2023/04/03 09:52:40;;;;;;;20.63;8.75;;;;;;;4.90;42.10;103549.63;7395988;19;20110;-59
2023/04/03 09:55:17;;;;;;;6.82;1.60;;;;;;;4.93;41.06;103543.47;7396391;19;20077;-59
2023/04/03 09:57:43;;;;;;;5.22;1.45;;;;;;;4.97;41.18;103545.16;7394678;19;20016;-59
2023/04/03 10:00:29;;;;;;;2.15;0.73;;;;;;;4.90;39.15;103544.38;7396342;19;20022;-61
2023/04/03 10:02:56;;;;;;;3.70;0.90;;;;;;;4.93;40.56;103541.69;7395598;19;20045;-58
2023/04/03 10:05:33;;;;;;;3.85;0.90;;;;;;;5.00;40.77;103539.88;7395323;19;20007;-60
2023/04/03 10:08:14;;;;;;;2.45;0.80;;;;;;;5.08;39.71;103538.00;7396034;19;20006;-61
2023/04/03 10:10:42;;;;;;;2.97;0.80;;;;;;;5.01;40.73;103536.31;7395577;19;20013;-59
2023/04/03 10:13:13;;;;;;;5.32;0.85;;;;;;;5.07;41.44;103542.38;7396268;19;20020;-59
2023/04/03 10:15:46;;;;;;;2.45;0.70;;;;;;;5.13;40.49;103537.91;7395791;19;20013;-60
2023/04/03 10:18:42;;;;;;;4.63;0.80;;;;;;;5.10;39.93;103536.22;7394224;19;20030;-60
2023/04/03 10:21:48;;;;;;;3.22;0.80;;;;;;;5.08;38.46;103533.59;7394752;19;20092;-59
2023/04/03 10:24:24;;;;;;;3.60;0.80;;;;;;;5.06;38.72;103535.38;7394571;19;20009;-59
2023/04/03 10:26:56;;;;;;;5.32;1.00;;;;;;;5.12;38.79;103533.53;7393077;19;20013;-59
2023/04/03 10:29:54;;;;;;;6.90;1.00;;;;;;;5.18;39.03;103529.06;7395503;19;20102;-59
2023/04/03 10:32:42;;;;;;;1.88;0.70;;;;;;;5.28;39.35;103521.88;7395369;19;20018;-59
2023/04/03 10:35:20;;;;;;;3.00;0.95;;;;;;;5.25;38.85;103522.81;7394489;19;20003;-59
2023/04/03 10:38:09;;;;;;;2.05;0.85;;;;;;;5.31;39.08;103522.69;7393718;19;20005;-60
2023/04/03 10:41:04;;;;;;;3.95;0.82;;;;;;;5.40;38.90;103515.53;7394003;19;20090;-59
2023/04/03 10:43:41;;;;;;;4.20;0.80;;;;;;;5.46;40.08;103520.72;7392462;19;19995;-59
2023/04/03 10:46:07;;;;;;;3.47;0.90;;;;;;;5.52;40.17;103520.66;7395108;19;20062;-60
2023/04/03 10:48:46;;;;;;;3.58;0.98;;;;;;;5.53;39.34;103507.41;7396355;19;20401;-60
2023/04/03 10:51:30;;;;;;;3.45;1.00;;;;;;;5.57;38.01;103500.34;7393173;19;20017;-60
2023/04/03 10:54:00;;;;;;;4.65;1.10;;;;;;;5.51;39.15;103498.66;7394361;19;20284;-61
2023/04/03 10:56:39;;;;;;;3.63;1.17;;;;;;;5.44;38.46;103502.31;7391937;19;20048;-61
2023/04/03 10:59:32;;;;;;;2.95;0.95;;;;;;;5.55;38.18;103500.38;7394625;19;20021;-60
2023/04/03 11:02:18;;;;;;;3.85;0.80;;;;;;;5.54;38.48;103500.38;7389999;19;20029;-61
2023/04/03 11:04:48;;;;;;;3.50;1.17;;;;;;;5.61;39.07;103493.25;7394015;19;20006;-60
2023/04/03 11:07:23;;;;;;;4.03;0.82;;;;;;;5.70;38.33;103498.34;7394031;19;20002;-59
2023/04/03 11:09:58;;;;;;;3.42;0.82;;;;;;;5.65;38.39;103479.97;7395126;19;20014;-60
2023/04/03 11:12:38;;;;;;;3.15;1.02;;;;;;;5.74;38.89;103479.78;7396998;19;20033;-60
2023/04/03 11:15:05;;;;;;;2.38;0.90;;;;;;;5.80;39.14;103482.34;7396624;19;20062;-60
2023/04/03 11:17:38;;;;;;;2.70;0.98;;;;;;;5.85;37.92;103476.09;7395582;19;20006;-60
2023/04/03 11:20:27;;;;;;;3.67;0.95;;;;;;;5.84;37.08;103484.91;7396783;19;20006;-60
2023/04/03 11:23:01;;;;;;;2.88;0.80;;;;;;;5.81;37.60;103470.88;7395815;19;20002;-59
2023/04/03 11:25:29;;;;;;;;;;;;;;;5.82;36.78;103466.47;7397009;19;20501;-60
2023/04/03 11:28:01;;;;;;;4.18;1.13;;;;;;;5.86;38.41;103462.91;7397206;19;20268;-60
2023/04/03 11:30:39;;;;;;;2.08;0.80;;;;;;;5.89;38.19;103464.59;7397060;19;19999;-59
2023/04/03 11:33:28;;;;;;;3.35;0.88;;;;;;;5.97;38.30;103460.03;7397509;19;20009;-59
2023/04/03 11:36:02;;;;;;;2.33;0.88;;;;;;;5.95;38.18;103453.94;7393324;19;20277;-60
2023/04/03 11:38:36;;;;;;;4.28;0.80;;;;;;;5.95;38.39;103452.16;7390957;19;20313;-65
2023/04/03 11:41:04;;;;;;;3.85;0.90;;;;;;;5.99;38.01;103453.84;7392394;19;20074;-60
2023/04/03 11:43:32;;;;;;;4.78;1.00;;;;;;;6.03;37.90;103449.38;7391754;19;20330;-59
2023/04/03 11:46:05;;;;;;;2.15;0.80;;;;;;;6.10;37.58;103439.56;7393456;19;19998;-59
2023/04/03 11:48:31;;;;;;;3.67;0.90;;;;;;;6.13;38.26;103439.50;7392786;19;19995;-60
2023/04/03 11:51:21;;;;;;;3.65;0.93;;;;;;;6.14;38.29;103433.34;7392321;19;20018;-60
2023/04/03 11:53:47;;;;;;;2.72;1.00;;;;;;;6.18;38.63;103427.09;7391170;19;20510;-60
2023/04/03 11:56:30;;;;;;;3.22;1.25;;;;;;;6.30;37.56;103425.06;7391256;19;20006;-60